Time;durP1;ratioP1;P1;durP2;ratioP2;P2;SDS_P1;SDS_P2;PMS_P1;PMS_P2;Temp;Humidity;BMP_temperature;BMP_pressure;BME280_temperature;BME280_humidity;BME280_pressure;Samples;Min_cycle;Max_cycle;Signal;HPM_P1;HPM_P2
2022/11/21 00:00:17;;;;;;;;;5.00;3.67;;;;;11.02;69.24;100590.59;2103734;27;46453;-60
2022/11/21 00:01:25;;;;;;;;;6.33;2.67;;;;;11.03;69.22;100582.59;2099015;28;46515;-59
2022/11/21 00:02:26;;;;;;;;;5.50;2.50;;;;;11.05;69.54;100590.50;2098274;28;46668;-60
2022/11/21 00:03:26;;;;;;;;;3.33;3.33;;;;;11.06;69.21;100592.28;2103131;27;46956;-58
2022/11/21 00:04:27;;;;;;;;;7.67;6.00;;;;;11.07;69.30;100591.38;2104049;28;46254;-58
2022/11/21 00:05:28;;;;;;;;;3.67;3.00;;;;;11.08;69.25;100586.03;2096733;28;46618;-60
2022/11/21 00:06:28;;;;;;;;;5.25;4.00;;;;;11.10;69.30;100585.97;2105165;28;46046;-59
2022/11/21 00:07:29;;;;;;;;;3.33;2.00;;;;;11.12;68.96;100594.78;2105149;28;46616;-60
2022/11/21 00:08:29;;;;;;;;;5.00;4.00;;;;;11.10;69.22;100592.16;2098775;28;46364;-58
2022/11/21 00:09:32;;;;;;;;;3.67;3.00;;;;;11.11;69.10;100593.03;2102703;28;47945;-59
2022/11/21 00:10:34;;;;;;;;;3.75;3.00;;;;;11.12;69.15;100598.28;2098484;28;46815;-57
2022/11/21 00:11:34;;;;;;;;;1.75;1.25;;;;;11.12;69.04;100595.63;2105202;28;47122;-57
2022/11/21 00:12:35;;;;;;;;;3.33;3.33;;;;;11.12;69.02;100594.78;2104843;28;46602;-59
2022/11/21 00:13:35;;;;;;;;;2.00;2.00;;;;;11.12;69.14;100589.47;2099147;28;45913;-60
2022/11/21 00:14:35;;;;;;;;;5.00;5.00;;;;;11.12;68.94;100584.16;2107210;27;46689;-58
2022/11/21 00:15:36;;;;;;;;;5.00;3.00;;;;;11.11;69.08;100583.28;2100559;28;46325;-60
2022/11/21 00:16:36;;;;;;;;;5.33;4.33;;;;;11.11;68.97;100587.72;2105202;28;46501;-58
2022/11/21 00:17:37;;;;;;;;;3.33;3.00;;;;;11.10;69.16;100578.88;2104983;28;46216;-58
2022/11/21 00:18:37;;;;;;;;;3.00;3.00;;;;;11.11;68.81;100579.75;2105123;28;46400;-58
2022/11/21 00:19:37;;;;;;;;;3.67;3.67;;;;;11.10;68.92;100576.22;2104993;28;46685;-58
2022/11/21 00:20:39;;;;;;;;;3.33;2.67;;;;;11.12;68.84;100582.34;2100781;27;45658;-59
2022/11/21 00:21:39;;;;;;;;;2.50;2.50;;;;;11.13;68.94;100578.78;2103065;28;46791;-56
2022/11/21 00:22:39;;;;;;;;;1.33;1.33;;;;;11.13;69.13;100581.44;2105237;28;46563;-60
2022/11/21 00:23:41;;;;;;;;;2.00;2.00;;;;;11.13;68.98;100584.09;2103807;28;45885;-59
2022/11/21 00:24:41;;;;;;;;;3.00;2.00;;;;;11.13;69.00;100583.22;2105189;28;45912;-59
2022/11/21 00:25:42;;;;;;;;;2.00;2.00;;;;;11.12;69.00;100579.72;2095645;28;46266;-57
2022/11/21 00:26:42;;;;;;;;;2.00;1.00;;;;;11.12;69.11;100579.72;2095813;28;46473;-58
2022/11/21 00:27:42;;;;;;;;;3.00;2.00;;;;;11.13;68.72;100567.28;2089667;28;46793;-60
2022/11/21 00:28:43;;;;;;;;;2.67;2.00;;;;;11.13;68.83;100573.47;2091019;28;45944;-60
2022/11/21 00:29:44;;;;;;;;;3.25;2.25;;;;;11.15;68.87;100570.78;2097039;28;46429;-60
2022/11/21 00:30:44;;;;;;;;;5.00;2.00;;;;;11.14;69.03;100564.59;2105661;28;46375;-58
2022/11/21 00:31:45;;;;;;;;;4.67;2.67;;;;;11.16;68.74;100559.25;2103520;28;46648;-59
2022/11/21 00:32:45;;;;;;;;;5.00;2.67;;;;;11.15;68.75;100566.34;2096548;28;46978;-59
2022/11/21 00:33:45;;;;;;;;;3.00;3.00;;;;;11.15;68.95;100562.81;2099979;28;46306;-60
2022/11/21 00:34:46;;;;;;;;;3.67;3.00;;;;;11.15;68.73;100560.16;2099488;28;46431;-59
2022/11/21 00:35:46;;;;;;;;;2.67;2.00;;;;;11.16;68.79;100561.91;2101637;28;46551;-59
2022/11/21 00:36:46;;;;;;;;;1.67;1.33;;;;;11.16;68.74;100549.50;2098563;27;45811;-58
2022/11/21 00:37:47;;;;;;;;;2.67;2.00;;;;;11.16;68.58;100552.16;2104898;27;46140;-59
2022/11/21 00:38:47;;;;;;;;;2.00;2.00;;;;;11.17;68.75;100545.03;2098701;28;45623;-59
2022/11/21 00:39:48;;;;;;;;;3.00;2.67;;;;;11.17;68.81;100539.72;2100830;28;46326;-58
2022/11/21 00:40:49;;;;;;;;;3.67;3.00;;;;;11.18;68.83;100538.84;2100714;28;46042;-59
2022/11/21 00:41:49;;;;;;;;;5.00;3.67;;;;;11.16;68.56;100532.69;2108274;27;45852;-59
2022/11/21 00:42:49;;;;;;;;;2.00;1.00;;;;;11.15;68.81;100534.47;2108504;27;46504;-59
2022/11/21 00:43:50;;;;;;;;;1.33;1.33;;;;;11.16;68.87;100536.22;2104005;28;46242;-59
2022/11/21 00:44:50;;;;;;;;;1.67;1.00;;;;;11.16;69.02;100528.25;2105916;27;46810;-59
2022/11/21 00:45:50;;;;;;;;;6.00;4.67;;;;;11.16;68.81;100530.03;2108373;27;46703;-60
2022/11/21 00:46:51;;;;;;;;;2.00;2.00;;;;;11.17;68.74;100532.63;2105077;28;45975;-61
2022/11/21 00:47:51;;;;;;;;;5.67;3.00;;;;;11.18;68.87;100531.75;2100177;28;46843;-59
2022/11/21 00:48:51;;;;;;;;;6.00;3.33;;;;;11.19;68.68;100524.66;2096262;28;46497;-59
2022/11/21 00:49:52;;;;;;;;;4.00;3.00;;;;;11.21;68.75;100533.44;2095386;28;46309;-59
2022/11/21 00:50:52;;;;;;;;;3.00;2.67;;;;;11.20;68.66;100527.25;2092648;28;46507;-59
2022/11/21 00:51:52;;;;;;;;;4.00;2.00;;;;;11.23;68.77;100526.31;2103795;28;46340;-59
2022/11/21 00:52:55;;;;;;;;;4.00;3.00;;;;;11.24;68.81;100520.06;2099246;28;46210;-58
2022/11/21 00:53:55;;;;;;;;;3.25;3.00;;;;;11.25;68.81;100524.47;2097950;28;46560;-60
2022/11/21 00:54:55;;;;;;;;;4.00;1.00;;;;;11.27;68.86;100522.63;2103840;28;46568;-58
2022/11/21 00:55:56;;;;;;;;;3.00;3.00;;;;;11.29;68.63;100526.13;2103255;28;46345;-57
2022/11/21 00:56:57;;;;;;;;;5.00;3.67;;;;;11.30;68.53;100532.31;2101298;28;46113;-58
2022/11/21 00:57:57;;;;;;;;;3.67;3.33;;;;;11.30;68.73;100524.34;2101110;28;46005;-58
2022/11/21 00:58:57;;;;;;;;;2.33;2.33;;;;;11.31;68.61;100523.44;2085396;28;46479;-59
2022/11/21 00:59:58;;;;;;;;;2.00;2.00;;;;;11.30;68.61;100522.53;2085384;28;46826;-59
2022/11/21 01:01:16;;;;;;;;;3.00;3.00;;;;;11.31;68.63;100524.31;2103980;28;46556;-58
2022/11/21 01:02:16;;;;;;;;;3.00;3.00;;;;;11.32;68.47;100520.75;2104660;28;46646;-58
2022/11/21 01:03:17;;;;;;;;;6.00;4.00;;;;;11.31;68.28;100521.66;2098872;28;46373;-61
2022/11/21 01:04:17;;;;;;;;;3.00;3.00;;;;;11.30;68.71;100519.88;2104641;28;46771;-58
2022/11/21 01:05:17;;;;;;;;;3.67;3.67;;;;;11.30;68.55;100519.88;2104608;28;46571;-57
2022/11/21 01:06:18;;;;;;;;;5.00;3.00;;;;;11.31;68.65;100524.31;2102483;28;46586;-58
2022/11/21 01:07:18;;;;;;;;;3.00;3.00;;;;;11.29;68.71;100510.19;2102750;28;46501;-57
2022/11/21 01:08:18;;;;;;;;;3.67;2.33;;;;;11.28;68.57;100519.06;2101340;28;46255;-59
2022/11/21 01:09:19;;;;;;;;;3.00;3.00;;;;;11.27;68.49;100512.00;2099359;28;46337;-59
2022/11/21 01:10:19;;;;;;;;;3.00;2.00;;;;;11.28;68.54;100512.88;2103413;28;46647;-59
2022/11/21 01:11:20;;;;;;;;;3.00;3.00;;;;;11.27;68.71;100512.00;2104867;27;46887;-58
2022/11/21 01:12:20;;;;;;;;;3.75;2.00;;;;;11.26;68.50;100510.28;2105229;28;46104;-60
2022/11/21 01:13:21;;;;;;;;;4.00;2.33;;;;;11.23;68.68;100510.38;2105104;28;46022;-60
2022/11/21 01:14:22;;;;;;;;;4.33;3.00;;;;;11.24;68.63;100508.56;2104592;28;46801;-57
2022/11/21 01:15:22;;;;;;;;;5.50;3.50;;;;;11.24;68.84;100516.56;2104068;28;46862;-57
2022/11/21 01:16:25;;;;;;;;;2.00;2.00;;;;;11.25;68.90;100512.97;2103395;28;46690;-59
2022/11/21 01:17:25;;;;;;;;;4.25;2.50;;;;;11.25;68.67;100518.28;2096534;28;46337;-58
2022/11/21 01:18:25;;;;;;;;;2.33;2.33;;;;;11.23;68.65;100506.84;2102313;27;46372;-60
2022/11/21 01:19:26;;;;;;;;;3.00;2.33;;;;;11.20;68.78;100508.66;2100866;27;46125;-59
2022/11/21 01:20:26;;;;;;;;;2.33;2.00;;;;;11.20;69.15;100505.16;2103096;28;46206;-57
2022/11/21 01:21:29;;;;;;;;;2.67;2.67;;;;;11.18;68.93;100502.53;2101659;28;46544;-59
2022/11/21 01:22:29;;;;;;;;;3.50;2.50;;;;;11.18;69.07;100512.28;2095733;28;46851;-57
2022/11/21 01:23:30;;;;;;;;;5.00;4.67;;;;;11.17;69.07;100508.72;2095363;28;46647;-60
2022/11/21 01:24:30;;;;;;;;;2.33;2.33;;;;;11.18;68.88;100504.31;2098775;28;46641;-59
2022/11/21 01:25:34;;;;;;;;;3.00;3.00;;;;;11.18;69.01;100501.66;2095591;28;46398;-61
2022/11/21 01:26:36;;;;;;;;;6.00;2.75;;;;;11.17;69.08;100498.09;2095114;28;46927;-58
2022/11/21 01:27:37;;;;;;;;;6.75;3.75;;;;;11.17;69.02;100503.41;2097231;28;47003;-58
2022/11/21 01:28:37;;;;;;;;;2.00;2.00;;;;;11.18;69.06;100506.97;2096108;28;46464;-57
2022/11/21 01:29:37;;;;;;;;;7.00;5.00;;;;;11.16;69.01;100503.47;2093815;28;46533;-60
2022/11/21 01:30:38;;;;;;;;;5.00;4.00;;;;;11.15;68.91;100507.91;2097939;28;46308;-58
2022/11/21 01:31:38;;;;;;;;;3.00;2.00;;;;;11.14;68.92;100495.53;2102400;28;47683;-60
2022/11/21 01:32:39;;;;;;;;;6.33;3.33;;;;;11.14;69.17;100494.69;2096033;28;46334;-60
2022/11/21 01:33:40;;;;;;;;;3.25;3.25;;;;;11.14;69.21;100499.97;2096294;28;46313;-60
2022/11/21 01:34:41;;;;;;;;;5.25;4.00;;;;;11.15;69.15;100493.75;2097042;28;46273;-59
2022/11/21 01:35:41;;;;;;;;;4.33;3.00;;;;;11.16;69.49;100491.06;2096824;28;45881;-58
2022/11/21 01:36:41;;;;;;;;;4.00;3.00;;;;;11.16;69.23;100499.03;2103351;28;46469;-60
2022/11/21 01:37:42;;;;;;;;;3.33;3.00;;;;;11.17;68.98;100499.88;2096249;28;46681;-59
2022/11/21 01:38:54;;;;;;;;;2.33;2.33;;;;;11.15;69.15;100489.31;2098879;28;46637;-59
2022/11/21 01:39:54;;;;;;;;;2.25;2.25;;;;;11.14;69.27;100490.22;2087228;28;46784;-58
2022/11/21 01:40:54;;;;;;;;;4.00;4.00;;;;;11.13;69.38;100485.84;2095023;28;44962;-59
2022/11/21 01:41:55;;;;;;;;;4.00;2.67;;;;;11.12;69.42;100481.44;2102001;28;46147;-59
2022/11/21 01:43:03;;;;;;;;;2.00;2.00;;;;;11.14;69.22;100481.41;2104408;28;46076;-58
2022/11/21 01:44:19;;;;;;;;;2.00;2.00;;;;;11.15;69.18;100478.69;2101979;28;46874;-59
2022/11/21 01:45:58;;;;;;;;;4.75;3.50;;;;;11.16;69.22;100479.56;2105165;27;46589;-59
2022/11/21 01:46:58;;;;;;;;;3.25;3.25;;;;;11.15;69.17;100475.16;2101570;28;46766;-58
2022/11/21 01:47:59;;;;;;;;;8.00;3.00;;;;;11.14;69.39;100476.09;2099001;28;45803;-60
2022/11/21 01:49:11;;;;;;;;;2.00;2.00;;;;;11.14;69.22;100458.38;2082329;28;46349;-58
2022/11/21 01:50:11;;;;;;;;;3.00;3.00;;;;;11.13;69.09;100461.94;2080550;28;46629;-59
2022/11/21 01:51:22;;;;;;;;;4.00;2.33;;;;;11.14;69.08;100460.16;2095313;28;46845;-60
2022/11/21 01:52:30;;;;;;;;;3.50;2.75;;;;;11.13;69.39;100461.94;2092899;28;46343;-60
2022/11/21 01:53:32;;;;;;;;;2.00;2.00;;;;;11.13;69.18;100459.28;2096518;28;46429;-59
2022/11/21 01:55:01;;;;;;;;;2.00;2.00;;;;;11.12;69.13;100462.84;2076964;28;46497;-58
2022/11/21 01:56:02;;;;;;;;;1.75;1.75;;;;;11.11;69.41;100452.28;2086230;28;46599;-59
2022/11/21 01:57:16;;;;;;;;;3.00;3.00;;;;;11.10;69.18;100453.19;2099587;27;46331;-60
2022/11/21 01:58:16;;;;;;;;;8.50;3.00;;;;;11.10;69.31;100443.44;2096761;28;46640;-58
2022/11/21 01:59:24;;;;;;;;;3.00;2.00;;;;;11.10;69.46;100448.75;2095039;28;46498;-59
2022/11/21 02:00:28;;;;;;;;;3.50;2.50;;;;;11.11;69.63;100447.84;2102408;27;46448;-59
2022/11/21 02:01:29;;;;;;;;;3.25;3.00;;;;;11.11;69.62;100445.19;2103872;27;46600;-59
2022/11/21 02:02:35;;;;;;;;;3.00;3.00;;;;;11.13;69.49;100442.47;2103732;28;46457;-58
2022/11/21 02:03:37;;;;;;;;;2.75;2.75;;;;;11.15;69.30;100437.97;2101137;28;46088;-58
2022/11/21 02:04:40;;;;;;;;;5.50;3.50;;;;;11.14;69.39;100434.47;2103379;28;46545;-58
2022/11/21 02:05:40;;;;;;;;;7.00;6.00;;;;;11.16;69.41;100437.06;2102078;28;46282;-59
2022/11/21 02:06:42;;;;;;;;;4.00;4.00;;;;;11.16;69.41;100431.75;2103733;28;46319;-59
2022/11/21 02:07:46;;;;;;;;;5.25;4.00;;;;;11.16;69.57;100432.63;2098643;28;46577;-57
2022/11/21 02:08:46;;;;;;;;;4.00;3.00;;;;;11.17;69.45;100433.50;2101767;28;46666;-60
2022/11/21 02:09:53;;;;;;;;;2.67;2.67;;;;;11.17;69.16;100442.34;2097845;27;47183;-58
2022/11/21 02:11:01;;;;;;;;;4.00;4.00;;;;;11.18;69.20;100435.25;2097277;28;46521;-59
2022/11/21 02:12:10;;;;;;;;;2.75;2.75;;;;;11.17;69.29;100442.34;2102609;28;46481;-59
2022/11/21 02:13:11;;;;;;;;;5.00;3.00;;;;;11.17;69.38;100450.31;2102204;28;46637;-58
2022/11/21 02:14:11;;;;;;;;;4.75;3.50;;;;;11.16;69.38;100447.69;2105656;28;46492;-58
2022/11/21 02:15:11;;;;;;;;;5.67;4.67;;;;;11.16;69.54;100453.88;2102887;28;45561;-59
2022/11/21 02:16:12;;;;;;;;;4.33;4.00;;;;;11.13;69.02;100443.34;2103774;28;46170;-59
2022/11/21 02:17:12;;;;;;;;;4.00;3.00;;;;;11.11;69.30;100447.84;2105289;28;46289;-59
2022/11/21 02:18:13;;;;;;;;;7.33;4.67;;;;;11.09;69.38;100449.66;2105624;28;46295;-60
2022/11/21 02:19:26;;;;;;;;;5.00;3.67;;;;;11.08;69.14;100444.41;2096822;28;45715;-58
2022/11/21 02:20:28;;;;;;;;;4.75;3.00;;;;;11.05;69.29;100439.16;2096160;28;46389;-58
2022/11/21 02:21:31;;;;;;;;;4.00;3.00;;;;;11.03;69.65;100443.63;2100168;27;46449;-59
2022/11/21 02:22:48;;;;;;;;;8.00;4.25;;;;;11.04;69.43;100438.28;2114341;27;47254;-59
2022/11/21 02:23:57;;;;;;;;;3.25;3.00;;;;;11.06;69.55;100435.63;2105643;28;46298;-61
2022/11/21 02:25:22;;;;;;;;;6.00;5.50;;;;;11.07;69.65;100434.69;2101971;28;46461;-59
2022/11/21 02:26:23;;;;;;;;;2.00;2.00;;;;;11.09;69.52;100430.22;2097743;28;46396;-58
2022/11/21 02:27:23;;;;;;;;;1.33;1.33;;;;;11.10;69.44;100429.28;2097366;28;46553;-56
2022/11/21 02:28:25;;;;;;;;;2.00;2.00;;;;;11.12;69.56;100422.16;2103309;28;46437;-58
2022/11/21 02:29:26;;;;;;;;;5.50;3.25;;;;;11.13;69.54;100415.91;2105578;28;46980;-62
2022/11/21 02:30:29;;;;;;;;;5.00;5.00;;;;;11.14;69.41;100417.66;2105780;28;45480;-60
2022/11/21 02:31:29;;;;;;;;;4.00;4.00;;;;;11.16;69.51;100418.47;2104034;28;46510;-59
2022/11/21 02:32:36;;;;;;;;;5.00;4.67;;;;;11.15;69.28;100409.63;2097163;28;46269;-59
2022/11/21 02:33:36;;;;;;;;;4.75;3.00;;;;;11.15;69.51;100411.44;2097201;28;46754;-57
2022/11/21 02:34:36;;;;;;;;;5.00;4.00;;;;;11.15;69.52;100411.44;2100415;28;46407;-60
2022/11/21 02:35:38;;;;;;;;;2.00;2.00;;;;;11.16;69.40;100411.38;2105088;28;46290;-59
2022/11/21 02:36:40;;;;;;;;;4.00;3.25;;;;;11.17;69.50;100409.59;2104265;28;46836;-60
2022/11/21 02:37:44;;;;;;;;;4.00;3.50;;;;;11.18;69.38;100408.72;2099100;28;45139;-59
2022/11/21 02:38:44;;;;;;;;;7.25;4.75;;;;;11.19;69.54;100405.13;2097871;28;46327;-59
2022/11/21 02:39:46;;;;;;;;;3.33;3.33;;;;;11.20;69.44;100404.22;2103922;28;46718;-60
2022/11/21 02:40:52;;;;;;;;;4.00;3.50;;;;;11.22;69.47;100397.06;2095545;28;45317;-58
2022/11/21 02:42:15;;;;;;;;;3.75;3.50;;;;;11.24;69.22;100395.22;2096081;28;46880;-60
2022/11/21 02:43:23;;;;;;;;;3.75;2.75;;;;;11.25;69.35;100404.06;2105379;28;48228;-59
2022/11/21 02:44:34;;;;;;;;;3.50;3.50;;;;;11.26;69.41;100401.38;2105584;28;46398;-59
2022/11/21 02:45:43;;;;;;;;;3.50;3.25;;;;;11.27;69.34;100399.56;2101437;27;46982;-60
2022/11/21 02:46:49;;;;;;;;;3.00;3.00;;;;;11.28;69.16;100396.00;2106553;27;46325;-59
2022/11/21 02:47:53;;;;;;;;;3.00;3.00;;;;;11.28;69.22;100394.22;2104622;27;45833;-58
2022/11/21 02:48:56;;;;;;;;;2.75;2.75;;;;;11.28;69.07;100396.88;2104390;27;46495;-60
2022/11/21 02:50:11;;;;;;;;;7.25;7.25;;;;;11.28;69.21;100396.88;2082130;28;45917;-60
2022/11/21 02:51:12;;;;;;;;;4.75;4.75;;;;;11.28;69.33;100390.69;2085515;28;46800;-57
2022/11/21 02:52:12;;;;;;;;;5.00;3.00;;;;;11.27;68.93;100395.13;2105967;27;46533;-60
2022/11/21 02:53:16;;;;;;;;;5.00;5.00;;;;;11.28;69.17;100388.03;2107739;27;46882;-60
2022/11/21 02:54:16;;;;;;;;;4.25;3.00;;;;;11.27;68.99;100391.59;2109946;27;46812;-59
2022/11/21 02:55:16;;;;;;;;;4.33;4.33;;;;;11.26;69.02;100392.53;2099810;27;46478;-58
2022/11/21 02:56:17;;;;;;;;;3.33;3.33;;;;;11.24;69.13;100391.69;2101994;27;46697;-60
2022/11/21 02:57:17;;;;;;;;;6.00;4.00;;;;;11.24;69.04;100391.69;2102528;27;46158;-59
2022/11/21 02:58:18;;;;;;;;;8.00;4.00;;;;;11.24;69.11;100394.38;2104311;27;46661;-57
2022/11/21 02:59:18;;;;;;;;;5.50;4.25;;;;;11.23;69.31;100385.53;2101564;27;46637;-60
2022/11/21 03:00:19;;;;;;;;;6.00;3.00;;;;;11.25;69.50;100386.34;2106893;27;46565;-60
2022/11/21 03:01:20;;;;;;;;;2.00;2.00;;;;;11.26;68.97;100379.25;2102613;27;46332;-60
2022/11/21 03:02:20;;;;;;;;;6.00;5.00;;;;;11.28;69.30;100380.06;2104629;27;45895;-60
2022/11/21 03:03:21;;;;;;;;;2.33;2.00;;;;;11.29;69.24;100380.00;2113746;27;46207;-60
2022/11/21 03:04:21;;;;;;;;;2.00;2.00;;;;;11.32;69.02;100373.75;2107668;27;46749;-59
2022/11/21 03:05:22;;;;;;;;;5.00;5.00;;;;;11.32;69.26;100371.97;2097053;28;46431;-60
2022/11/21 03:06:22;;;;;;;;;4.00;4.00;;;;;11.33;68.95;100370.19;2105182;27;46247;-60
2022/11/21 03:07:23;;;;;;;;;4.33;4.33;;;;;11.35;69.05;100373.66;2105488;27;45994;-58
2022/11/21 03:08:23;;;;;;;;;4.00;4.00;;;;;11.35;69.17;100377.19;2105481;28;46834;-58
2022/11/21 03:09:24;;;;;;;;;4.67;4.67;;;;;11.35;68.99;100374.53;2104500;27;46337;-61
2022/11/21 03:10:24;;;;;;;;;4.67;4.33;;;;;11.36;69.03;100375.41;2109167;27;46577;-59
2022/11/21 03:11:24;;;;;;;;;2.00;2.00;;;;;11.34;68.89;100363.97;2098822;28;46675;-61
2022/11/21 03:12:25;;;;;;;;;4.00;4.00;;;;;11.35;69.07;100373.66;2100776;27;45652;-59
2022/11/21 03:13:25;;;;;;;;;5.67;4.00;;;;;11.35;69.17;100374.53;2097021;28;46228;-58
2022/11/21 03:14:25;;;;;;;;;6.00;4.00;;;;;11.36;69.02;100373.59;2101008;27;46200;-58
2022/11/21 03:15:31;;;;;;;;;6.00;4.00;;;;;11.37;69.11;100366.50;2099923;27;45642;-60
2022/11/21 03:16:32;;;;;;;;;3.75;3.75;;;;;11.37;68.87;100377.13;2099947;28;46775;-60
2022/11/21 03:17:32;;;;;;;;;4.00;4.00;;;;;11.36;69.14;100372.75;2104398;27;46304;-59
2022/11/21 03:18:32;;;;;;;;;2.67;2.67;;;;;11.37;68.74;100370.03;2098813;27;46799;-58
2022/11/21 03:19:33;;;;;;;;;2.33;2.33;;;;;11.37;69.12;100369.16;2100920;28;47302;-59
2022/11/21 03:20:34;;;;;;;;;4.00;4.00;;;;;11.36;68.94;100373.59;2099864;27;46905;-60
2022/11/21 03:21:34;;;;;;;;;6.00;4.00;;;;;11.37;68.84;100372.69;2098796;28;45935;-58
2022/11/21 03:22:34;;;;;;;;;3.33;3.00;;;;;11.38;69.07;100361.16;2091905;28;46356;-60
2022/11/21 03:23:35;;;;;;;;;3.00;3.00;;;;;11.38;69.04;100357.63;2087984;28;46797;-59
2022/11/21 03:24:35;;;;;;;;;8.00;6.00;;;;;11.38;68.85;100353.19;2101455;28;46694;-59
2022/11/21 03:25:36;;;;;;;;;7.33;5.33;;;;;11.39;69.02;100349.59;2100075;28;46470;-59
2022/11/21 03:26:36;;;;;;;;;16.00;13.50;;;;;11.39;68.96;100346.94;2099427;28;47006;-60
2022/11/21 03:27:36;;;;;;;;;11.33;10.33;;;;;11.40;68.75;100345.16;2106366;27;46584;-60
2022/11/21 03:28:37;;;;;;;;;8.00;8.00;;;;;11.39;69.01;100344.28;2097926;28;46706;-59
2022/11/21 03:29:37;;;;;;;;;7.00;6.00;;;;;11.39;68.83;100332.78;2102621;28;46538;-59
2022/11/21 03:30:37;;;;;;;;;5.67;3.00;;;;;11.39;68.96;100338.09;2101246;28;46893;-59
2022/11/21 03:31:37;;;;;;;;;5.00;5.00;;;;;11.39;68.96;100335.44;2100198;28;46579;-59
2022/11/21 03:32:38;;;;;;;;;6.00;4.00;;;;;11.40;68.82;100330.09;2095567;28;46671;-59
2022/11/21 03:33:38;;;;;;;;;4.00;2.33;;;;;11.41;68.89;100329.16;2089325;28;46950;-58
2022/11/21 03:34:38;;;;;;;;;4.67;4.00;;;;;11.42;69.00;100327.38;2088568;28;46628;-59
2022/11/21 03:35:39;;;;;;;;;5.33;4.33;;;;;11.44;68.96;100325.56;2092690;28;46527;-59
2022/11/21 03:36:39;;;;;;;;;10.00;4.33;;;;;11.42;68.88;100322.06;2091065;28;46470;-59
2022/11/21 03:37:39;;;;;;;;;5.33;5.00;;;;;11.42;68.81;100322.94;2094102;28;45999;-58
2022/11/21 03:38:40;;;;;;;;;6.00;6.00;;;;;11.43;68.79;100315.81;2092843;28;46442;-60
2022/11/21 03:39:40;;;;;;;;;5.33;5.33;;;;;11.41;68.90;100313.22;2094684;28;46395;-59
2022/11/21 03:40:40;;;;;;;;;3.33;3.33;;;;;11.41;68.77;100307.91;2089870;28;46852;-59
2022/11/21 03:41:41;;;;;;;;;6.00;4.67;;;;;11.42;68.70;100311.44;2089644;28;46232;-58
2022/11/21 03:42:41;;;;;;;;;5.00;3.00;;;;;11.39;68.59;100304.44;2091412;28;46517;-59
2022/11/21 03:43:41;;;;;;;;;5.00;4.00;;;;;11.40;68.75;100303.50;2092928;28;46226;-59
2022/11/21 03:44:42;;;;;;;;;4.00;4.00;;;;;11.40;68.76;100300.84;2096376;28;46302;-59
2022/11/21 03:45:45;;;;;;;;;6.00;4.00;;;;;11.39;68.87;100299.13;2096369;28;45612;-59
2022/11/21 03:46:46;;;;;;;;;4.00;3.00;;;;;11.40;68.66;100305.31;2096010;28;46771;-58
2022/11/21 03:47:46;;;;;;;;;5.00;5.00;;;;;11.40;68.52;100300.00;2096603;28;46371;-59
2022/11/21 03:48:47;;;;;;;;;6.00;4.33;;;;;11.39;68.67;100298.25;2090390;28;46306;-59
2022/11/21 03:49:47;;;;;;;;;4.67;4.67;;;;;11.40;68.56;100308.81;2088993;28;46298;-59
2022/11/21 03:50:47;;;;;;;;;5.00;4.00;;;;;11.40;68.52;100306.16;2088627;28;46477;-57
2022/11/21 03:51:48;;;;;;;;;3.00;3.00;;;;;11.40;68.82;100308.81;2089862;28;46217;-59
2022/11/21 03:52:48;;;;;;;;;4.33;4.33;;;;;11.41;68.83;100304.38;2088594;28;46267;-60
2022/11/21 03:53:49;;;;;;;;;6.33;3.67;;;;;11.41;68.64;100299.94;2089438;28;46941;-60
2022/11/21 03:54:49;;;;;;;;;3.33;3.33;;;;;11.41;68.52;100299.06;2091910;28;46504;-59
2022/11/21 03:55:49;;;;;;;;;3.67;3.67;;;;;11.40;68.60;100292.88;2089670;28;47249;-58
2022/11/21 03:56:49;;;;;;;;;6.00;6.00;;;;;11.40;68.74;100298.19;2094163;28;46457;-59
2022/11/21 03:57:50;;;;;;;;;7.00;5.67;;;;;11.39;68.79;100296.47;2088116;28;46264;-59
2022/11/21 03:58:50;;;;;;;;;2.67;2.67;;;;;11.39;68.53;100298.25;2094975;28;46232;-61
2022/11/21 03:59:51;;;;;;;;;4.33;3.33;;;;;11.40;68.76;100302.66;2095471;28;46679;-60
2022/11/21 04:00:51;;;;;;;;;5.00;4.00;;;;;11.40;68.62;100298.19;2095462;28;47020;-60
2022/11/21 04:01:51;;;;;;;;;3.00;3.00;;;;;11.40;68.79;100292.88;2095353;28;46657;-58
2022/11/21 04:02:52;;;;;;;;;3.67;3.33;;;;;11.40;68.53;100290.22;2094569;28;46799;-60
2022/11/21 04:03:52;;;;;;;;;5.00;5.00;;;;;11.41;68.68;100291.09;2088069;28;46161;-59
2022/11/21 04:04:53;;;;;;;;;5.67;3.33;;;;;11.38;68.75;100283.22;2094050;28;46401;-59
2022/11/21 04:05:53;;;;;;;;;7.33;5.33;;;;;11.38;68.58;100277.91;2092328;28;46128;-58
2022/11/21 04:06:53;;;;;;;;;5.67;4.00;;;;;11.37;68.36;100277.06;2089610;28;46262;-59
2022/11/21 04:07:54;;;;;;;;;4.00;4.00;;;;;11.36;68.66;100277.09;2096517;28;46120;-59
2022/11/21 04:08:54;;;;;;;;;4.00;4.00;;;;;11.34;68.63;100270.97;2092462;28;46375;-58
2022/11/21 04:09:54;;;;;;;;;5.00;4.00;;;;;11.33;68.76;100261.28;2096680;28;46700;-59
2022/11/21 04:10:55;;;;;;;;;5.00;5.00;;;;;11.32;68.70;100260.41;2096049;28;46638;-58
2022/11/21 04:11:55;;;;;;;;;5.00;4.00;;;;;11.33;68.58;100253.31;2096723;28;46233;-59
2022/11/21 04:12:55;;;;;;;;;7.67;4.33;;;;;11.33;68.58;100258.63;2096106;28;45062;-58
2022/11/21 04:13:56;;;;;;;;;3.33;3.33;;;;;11.32;68.83;100259.53;2095759;28;46685;-59
2022/11/21 04:14:56;;;;;;;;;4.00;4.00;;;;;11.33;68.61;100259.47;2103382;28;46999;-58
2022/11/21 04:15:57;;;;;;;;;6.33;4.33;;;;;11.33;68.65;100254.16;2103849;28;46466;-59
2022/11/21 04:16:57;;;;;;;;;6.00;5.33;;;;;11.33;68.54;100248.00;2088636;28;46212;-59
2022/11/21 04:17:57;;;;;;;;;5.33;5.00;;;;;11.31;68.86;100253.34;2091278;28;46947;-60
2022/11/21 04:18:58;;;;;;;;;8.00;6.00;;;;;11.31;68.80;100248.03;2091138;27;46456;-58
2022/11/21 04:19:58;;;;;;;;;3.67;3.67;;;;;11.31;68.72;100242.72;2090273;28;45431;-59
2022/11/21 04:21:00;;;;;;;;;3.33;2.67;;;;;11.31;68.57;100233.88;2094902;28;46769;-57
2022/11/21 04:22:00;;;;;;;;;4.75;3.25;;;;;11.30;68.73;100238.31;2093117;28;47186;-58
2022/11/21 04:23:01;;;;;;;;;5.67;4.67;;;;;11.30;68.49;100234.78;2095923;28;45767;-60
2022/11/21 04:24:01;;;;;;;;;6.33;6.33;;;;;11.27;68.46;100226.91;2087326;28;46701;-60
2022/11/21 04:25:01;;;;;;;;;5.67;5.67;;;;;11.26;68.45;100225.19;2090183;28;47885;-60
2022/11/21 04:26:02;;;;;;;;;8.00;6.67;;;;;11.24;68.63;100221.72;2088111;28;46687;-60
2022/11/21 04:27:03;;;;;;;;;6.75;5.25;;;;;11.23;68.64;100223.50;2094083;28;47057;-58
2022/11/21 04:28:04;;;;;;;;;6.67;5.67;;;;;11.23;68.83;100209.34;2091089;28;46238;-60
2022/11/21 04:29:04;;;;;;;;;7.00;5.75;;;;;11.21;68.94;100217.38;2087751;28;46971;-60
2022/11/21 04:30:05;;;;;;;;;4.33;4.00;;;;;11.21;68.88;100220.03;2090967;28;46487;-58
2022/11/21 04:31:07;;;;;;;;;7.25;6.75;;;;;11.20;68.50;100223.59;2094324;28;46540;-59
2022/11/21 04:32:08;;;;;;;;;6.50;3.75;;;;;11.17;68.62;100215.72;2092385;28;47088;-60
2022/11/21 04:33:09;;;;;;;;;8.00;6.00;;;;;11.17;68.64;100216.56;2092128;28;45977;-61
2022/11/21 04:34:09;;;;;;;;;6.50;6.50;;;;;11.16;68.90;100211.31;2100204;28;46453;-60
2022/11/21 04:35:10;;;;;;;;;9.33;6.00;;;;;11.15;68.82;100210.44;2103906;28;46252;-60
2022/11/21 04:36:10;;;;;;;;;8.00;7.00;;;;;11.14;68.84;100214.03;2100411;28;46452;-59
2022/11/21 04:37:10;;;;;;;;;8.00;7.33;;;;;11.12;68.86;100205.25;2104712;28;47151;-58
2022/11/21 04:38:12;;;;;;;;;8.00;6.00;;;;;11.10;68.91;100209.75;2104057;28;46139;-61
2022/11/21 04:39:13;;;;;;;;;8.25;7.75;;;;;11.09;68.79;100207.13;2102520;28;45377;-59
2022/11/21 04:40:14;;;;;;;;;9.00;7.00;;;;;11.07;68.87;100206.31;2103799;28;46491;-61
2022/11/21 04:41:14;;;;;;;;;6.50;6.50;;;;;11.04;69.01;100201.97;2103343;28;46703;-58
2022/11/21 04:42:14;;;;;;;;;9.00;6.00;;;;;11.04;69.07;100195.78;2104025;28;46325;-58
2022/11/21 04:43:15;;;;;;;;;7.00;7.00;;;;;11.01;69.06;100204.72;2104439;28;46057;-59
2022/11/21 04:44:15;;;;;;;;;8.00;7.00;;;;;10.99;68.94;100193.28;2101050;28;46329;-58
2022/11/21 04:45:16;;;;;;;;;6.33;5.67;;;;;10.96;69.16;100203.13;2094345;28;46241;-58
2022/11/21 04:46:17;;;;;;;;;10.67;8.00;;;;;10.94;68.91;100197.00;2092467;28;46503;-60
2022/11/21 04:47:17;;;;;;;;;7.50;7.25;;;;;10.91;69.38;100196.16;2104723;28;46650;-59